Time;durP1;ratioP1;P1;durP2;ratioP2;P2;SDS_P1;SDS_P2;PMS_P1;PMS_P2;Temp;Humidity;BMP_temperature;BMP_pressure;BME280_temperature;BME280_humidity;BME280_pressure;Samples;Min_cycle;Max_cycle;Signal;HPM_P1;HPM_P2
2022/09/21 00:01:04;;;;;;;;;;;;;;;10.22;74.24;101966.22;5084177;28;19927;-71
2022/09/21 00:03:31;;;;;;;;;;;;;;;10.09;75.41;101974.47;5089200;28;19989;-71
2022/09/21 00:06:01;;;;;;;;;;;;;;;9.95;75.99;101976.63;5098182;28;20410;-73
2022/09/21 00:08:27;;;;;;;;;;;;;;;9.86;76.84;101976.94;5084621;28;19931;-73
2022/09/21 00:10:54;;;;;;;;;;;;;;;10.01;75.71;101986.97;5083029;28;20326;-73
2022/09/21 00:13:20;;;;;;;;;;;;;;;9.75;76.38;101980.69;5086623;28;20460;-73
2022/09/21 00:15:46;;;;;;;;;;;;;;;9.82;76.19;101976.16;5088833;28;19924;-74
2022/09/21 00:18:12;;;;;;;;;;;;;;;9.98;75.39;101971.31;5085592;28;19977;-74
2022/09/21 00:20:41;;;;;;;;;;;;;;;9.84;75.98;101979.56;5085672;28;19974;-73
2022/09/21 00:23:07;;;;;;;;;;;;;;;10.06;74.89;101985.03;5088357;28;19928;-73
2022/09/21 00:25:33;;;;;;;;;;;;;;;10.33;74.24;101981.63;5087743;28;19989;-74
2022/09/21 00:27:59;;;;;;;;;;;;;;;10.40;73.09;101980.53;5087417;28;19946;-75
2022/09/21 00:30:25;;;;;;;;;;;;;;;10.52;71.78;101974.91;5085017;28;19924;-74
2022/09/21 00:32:53;;;;;;;;;;;;;;;10.21;71.36;101980.22;5088630;28;19950;-74
2022/09/21 00:35:19;;;;;;;;;;;;;;;10.04;71.97;101972.00;5087357;28;19924;-74
2022/09/21 00:37:46;;;;;;;;;;;;;;;10.03;72.79;101977.28;5088721;28;20383;-75
2022/09/21 00:40:13;;;;;;;;;;;;;;;9.74;75.35;101989.47;5086662;28;19967;-74
2022/09/21 00:42:39;;;;;;;;;;;;;;;9.92;75.44;101993.31;5107264;28;19923;-74
2022/09/21 00:45:06;;;;;;;;;;;;;;;10.12;74.43;101982.25;5094861;28;19924;-74
2022/09/21 00:47:34;;;;;;;;;;;;;;;10.18;72.78;101982.09;5107025;28;19924;-74
2022/09/21 00:50:02;;;;;;;;;;;;;;;9.95;72.88;101976.63;5106086;28;19924;-74
2022/09/21 00:52:30;;;;;;;;;;;;;;;9.94;72.85;101974.94;5106833;28;19924;-74
2022/09/21 00:55:01;;;;;;;;;;;;;;;9.89;73.37;101975.06;5105260;28;19950;-74
2022/09/21 00:57:30;;;;;;;;;;;;;;;9.49;75.44;101980.59;5084437;28;20496;-73
2022/09/21 00:59:58;;;;;;;;;;;;;;;9.60;76.50;101978.53;5088140;28;20427;-73
2022/09/21 01:02:25;;;;;;;;;;;;;;;9.43;77.10;101985.09;5079743;28;19924;-73
2022/09/21 01:04:52;;;;;;;;;;;;;;;9.49;77.54;101980.59;5088549;28;20018;-74
2022/09/21 01:07:21;;;;;;;;;;;;;;;9.53;76.89;101982.22;5088431;28;19924;-73
2022/09/21 01:09:49;;;;;;;;;;;;;;;9.67;75.71;101982.69;5102561;28;19924;-73
2022/09/21 01:12:25;;;;;;;;;;;;;;;9.78;75.39;101978.00;5107702;28;19923;-74
2022/09/21 01:14:57;;;;;;;;;;;;;;;9.77;74.69;101985.91;5099548;28;19977;-74
2022/09/21 01:17:30;;;;;;;;;;;;;;;9.38;77.27;101995.72;5089171;28;19928;-74
2022/09/21 01:20:20;;;;;;;;;;;;;;;9.45;76.96;101989.41;5111058;28;20048;-73
2022/09/21 01:22:54;;;;;;;;;;;;;;;9.38;76.27;102006.19;5040118;28;19925;-74
2022/09/21 01:25:27;;;;;;;;;;;;;;;9.21;77.25;102005.75;5109621;28;19924;-75
2022/09/21 01:28:04;;;;;;;;;;;;;;;8.90;79.01;102004.84;5104510;28;19928;-75
2022/09/21 01:30:33;;;;;;;;;;;;;;;9.18;78.06;102008.47;5089424;28;19939;-75
2022/09/21 01:33:03;;;;;;;;;;;;;;;9.16;77.63;102005.03;5092562;28;19974;-74
2022/09/21 01:35:31;;;;;;;;;;;;;;;9.03;78.59;102008.84;5089848;28;19928;-75
2022/09/21 01:37:59;;;;;;;;;;;;;;;9.10;78.26;102007.78;5089882;28;20393;-75
2022/09/21 01:40:28;;;;;;;;;;;;;;;9.03;77.53;102011.47;5088659;28;19924;-74
2022/09/21 01:42:55;;;;;;;;;;;;;;;8.83;78.88;102000.66;5090193;28;19973;-75
2022/09/21 01:45:26;;;;;;;;;;;;;;;8.80;79.40;102002.44;5088695;28;19924;-74
2022/09/21 01:47:55;;;;;;;;;;;;;;;8.67;79.60;102001.00;5104318;28;19923;-74
2022/09/21 01:50:21;;;;;;;;;;;;;;;8.62;79.68;102002.88;5107033;28;19924;-75
2022/09/21 01:52:50;;;;;;;;;;;;;;;8.54;80.18;102003.94;5108890;28;19923;-75
2022/09/21 01:55:19;;;;;;;;;;;;;;;8.43;80.50;102006.78;5107377;28;20424;-75
2022/09/21 01:57:50;;;;;;;;;;;;;;;8.44;80.18;102003.28;5094151;28;19924;-75
2022/09/21 02:00:16;;;;;;;;;;;;;;;8.65;80.05;102010.63;5091045;28;20402;-75
2022/09/21 02:02:44;;;;;;;;;;;;;;;8.82;78.87;102020.72;5087855;28;19924;-75
2022/09/21 02:05:14;;;;;;;;;;;;;;;8.67;79.58;102011.47;5086384;28;19924;-75
2022/09/21 02:07:40;;;;;;;;;;;;;;;8.40;81.78;102011.25;5085296;28;20301;-75
2022/09/21 02:10:08;;;;;;;;;;;;;;;8.67;81.89;102016.72;5085135;28;19947;-73
2022/09/21 02:12:34;;;;;;;;;;;;;;;8.61;82.51;102011.59;5084457;28;20355;-71
2022/09/21 02:15:01;;;;;;;;;;;;;;;8.91;80.93;102014.38;5090743;28;19978;-71
2022/09/21 02:17:33;;;;;;;;;;;;;;;8.92;80.24;102018.72;5086083;28;19977;-72
2022/09/21 02:20:07;;;;;;;;;;;;;;;8.73;80.57;102006.09;5085557;28;19950;-71
2022/09/21 02:22:39;;;;;;;;;;;;;;;8.62;80.85;102012.47;5085428;28;20088;-71
2022/09/21 02:25:08;;;;;;;;;;;;;;;8.68;80.98;102007.94;5085543;28;19960;-71
2022/09/21 02:27:39;;;;;;;;;;;;;;;8.85;80.17;102011.91;5086749;28;19928;-71
2022/09/21 02:30:07;;;;;;;;;;;;;;;8.89;78.86;102016.19;5076709;28;19928;-71
2022/09/21 02:32:37;;;;;;;;;;;;;;;8.88;78.80;102017.06;5083548;28;20291;-71
2022/09/21 02:35:08;;;;;;;;;;;;;;;8.85;79.17;102022.38;5084757;28;19928;-71
2022/09/21 02:37:40;;;;;;;;;;;;;;;8.53;80.80;102013.56;5085903;28;20168;-71
2022/09/21 02:40:08;;;;;;;;;;;;;;;8.60;79.66;102022.13;5085541;28;19977;-71
2022/09/21 02:42:39;;;;;;;;;;;;;;;8.96;78.29;102026.47;5084922;28;19977;-72
2022/09/21 02:45:09;;;;;;;;;;;;;;;9.24;76.41;102027.47;5084196;28;20431;-72
2022/09/21 02:47:39;;;;;;;;;;;;;;;9.26;75.43;102022.22;5083063;28;19924;-71
2022/09/21 02:50:09;;;;;;;;;;;;;;;8.77;77.04;102022.56;5081782;28;19928;-71
2022/09/21 02:52:39;;;;;;;;;;;;;;;8.64;78.31;102019.41;5076183;28;20924;-74
2022/09/21 02:55:06;;;;;;;;;;;;;;;8.62;78.09;102023.78;5084802;28;19924;-73
2022/09/21 02:57:32;;;;;;;;;;;;;;;8.38;79.40;102020.88;5084301;28;19974;-74
2022/09/21 02:59:59;;;;;;;;;;;;;;;8.32;80.33;102016.63;5085400;28;20272;-74
2022/09/21 03:02:35;;;;;;;;;;;;;;;8.63;79.38;102022.91;5073852;28;20450;-74
2022/09/21 03:05:01;;;;;;;;;;;;;;;8.48;80.43;102017.16;5084434;28;20018;-71
2022/09/21 03:07:27;;;;;;;;;;;;;;;8.42;79.98;102026.00;5084779;28;19981;-72
2022/09/21 03:09:55;;;;;;;;;;;;;;;8.52;79.39;102030.13;5083078;28;19924;-72
2022/09/21 03:12:21;;;;;;;;;;;;;;;8.52;78.18;102037.09;5084216;28;19979;-72
2022/09/21 03:14:50;;;;;;;;;;;;;;;8.60;78.00;102032.56;5085803;28;19931;-72
2022/09/21 03:17:16;;;;;;;;;;;;;;;8.92;77.16;102040.50;5083210;28;19924;-72
2022/09/21 03:19:42;;;;;;;;;;;;;;;9.03;76.17;102040.25;5084353;28;19924;-71
2022/09/21 03:22:08;;;;;;;;;;;;;;;8.88;75.82;102041.47;5084859;28;19981;-73
2022/09/21 03:24:46;;;;;;;;;;;;;;;8.81;75.32;102039.91;5083521;28;19928;-73
2022/09/21 03:27:14;;;;;;;;;;;;;;;8.98;75.06;102047.38;5083942;28;19969;-74
2022/09/21 03:29:40;;;;;;;;;;;;;;;8.89;75.25;102050.19;5082356;28;19924;-73
2022/09/21 03:32:07;;;;;;;;;;;;;;;8.60;76.34;102038.66;5084999;28;20325;-73
2022/09/21 03:34:33;;;;;;;;;;;;;;;8.83;75.76;102040.75;5084742;28;19924;-74
2022/09/21 03:36:59;;;;;;;;;;;;;;;8.92;75.32;102040.50;5083173;28;20372;-73
2022/09/21 03:39:25;;;;;;;;;;;;;;;8.90;74.84;102047.53;5084751;28;19982;-73
2022/09/21 03:41:54;;;;;;;;;;;;;;;8.66;75.19;102041.13;5087365;28;20364;-73
2022/09/21 03:44:22;;;;;;;;;;;;;;;8.61;75.90;102052.59;5084883;28;20443;-74
2022/09/21 03:46:49;;;;;;;;;;;;;;;8.50;76.31;102044.97;5077392;28;20393;-73
2022/09/21 03:49:15;;;;;;;;;;;;;;;8.48;77.51;102052.00;5083869;28;19935;-73
2022/09/21 03:51:41;;;;;;;;;;;;;;;8.44;78.17;102045.13;5082589;28;19973;-74
2022/09/21 03:54:07;;;;;;;;;;;;;;;8.37;78.63;102046.16;5085463;28;19993;-74
2022/09/21 03:56:34;;;;;;;;;;;;;;;8.62;77.25;102043.84;5084644;28;19989;-75
2022/09/21 03:59:00;;;;;;;;;;;;;;;8.51;77.98;102045.84;5083469;28;19932;-74
2022/09/21 04:01:27;;;;;;;;;;;;;;;8.29;78.08;102050.69;5085966;28;19950;-74
2022/09/21 04:03:54;;;;;;;;;;;;;;;8.37;77.98;102046.16;5083947;28;19924;-74
2022/09/21 04:06:20;;;;;;;;;;;;;;;8.83;76.17;102052.97;5081935;28;20334;-73
2022/09/21 04:08:46;;;;;;;;;;;;;;;8.71;76.45;102054.97;5091254;28;19977;-73
2022/09/21 04:11:13;;;;;;;;;;;;;;;8.89;75.92;102060.66;5083564;28;19932;-73
2022/09/21 04:13:41;;;;;;;;;;;;;;;8.86;75.76;102063.34;5092332;28;19924;-74
2022/09/21 04:16:08;;;;;;;;;;;;;;;8.43;76.96;102061.69;5093589;28;19936;-74
2022/09/21 04:18:36;;;;;;;;;;;;;;;8.19;78.50;102059.56;5087966;28;19924;-74
2022/09/21 04:21:02;;;;;;;;;;;;;;;7.90;80.21;102072.38;5086466;28;19932;-74
2022/09/21 04:23:28;;;;;;;;;;;;;;;8.15;79.36;102057.91;5089062;28;19932;-74
2022/09/21 04:25:54;;;;;;;;;;;;;;;8.34;77.96;102059.28;5087866;28;20335;-74
2022/09/21 04:28:21;;;;;;;;;;;;;;;8.32;76.38;102056.69;5088702;28;19967;-73
2022/09/21 04:30:47;;;;;;;;;;;;;;;8.10;77.76;102057.13;5087297;28;20011;-73
2022/09/21 04:33:14;;;;;;;;;;;;;;;8.00;78.58;102053.00;5089054;28;19924;-73
2022/09/21 04:35:42;;;;;;;;;;;;;;;8.50;77.19;102060.66;5087070;28;19935;-74
2022/09/21 04:38:08;;;;;;;;;;;;;;;8.85;74.93;102059.88;5088819;28;19930;-73
2022/09/21 04:40:34;;;;;;;;;;;;;;;8.31;75.87;102059.34;5087942;28;19928;-73
2022/09/21 04:43:01;;;;;;;;;;;;;;;7.60;79.68;102059.00;5103598;28;19923;-73
2022/09/21 04:45:27;;;;;;;;;;;;;;;7.40;81.51;102062.84;5089381;28;19924;-73
2022/09/21 04:47:53;;;;;;;;;;;;;;;7.67;80.56;102060.59;5088950;28;20363;-73
2022/09/21 04:50:19;;;;;;;;;;;;;;;7.47;80.79;102057.50;5106652;28;19924;-73
2022/09/21 04:52:47;;;;;;;;;;;;;;;7.37;82.05;102065.50;5106437;28;19928;-74
2022/09/21 04:55:13;;;;;;;;;;;;;;;7.37;82.63;102061.16;5106822;28;19923;-73
2022/09/21 04:57:40;;;;;;;;;;;;;;;7.54;82.06;102064.31;5097077;28;19931;-73
2022/09/21 05:00:06;;;;;;;;;;;;;;;7.88;81.28;102066.28;5093753;28;19931;-73
2022/09/21 05:02:33;;;;;;;;;;;;;;;8.21;79.65;102065.63;5094784;28;19984;-73
2022/09/21 05:04:59;;;;;;;;;;;;;;;8.16;79.31;102070.09;5109001;28;19924;-73
2022/09/21 05:07:25;;;;;;;;;;;;;;;8.17;79.42;102084.84;5085728;28;19977;-73
2022/09/21 05:10:03;;;;;;;;;;;;;;;8.25;78.69;102080.34;5086908;28;19977;-73
2022/09/21 05:12:30;;;;;;;;;;;;;;;8.28;78.38;102081.16;5075050;28;19959;-74
2022/09/21 05:14:56;;;;;;;;;;;;;;;8.42;77.30;102078.28;5094414;28;19932;-73
2022/09/21 05:17:23;;;;;;;;;;;;;;;8.45;77.19;102087.81;5094470;28;20000;-73
2022/09/21 05:19:49;;;;;;;;;;;;;;;8.25;77.76;102085.56;5086302;28;19930;-73
2022/09/21 05:22:15;;;;;;;;;;;;;;;8.19;78.46;102078.72;5084918;28;20005;-73
2022/09/21 05:24:41;;;;;;;;;;;;;;;8.34;78.76;102088.03;5084639;28;19924;-73
2022/09/21 05:27:10;;;;;;;;;;;;;;;8.57;77.44;102085.75;5086558;28;19924;-73
2022/09/21 05:29:36;;;;;;;;;;;;;;;8.63;77.14;102088.25;5093125;28;19928;-74
2022/09/21 05:32:05;;;;;;;;;;;;;;;8.79;76.26;102089.63;5086506;28;19950;-74
2022/09/21 05:34:38;;;;;;;;;;;;;;;9.06;75.08;102097.72;5094987;28;19977;-74
2022/09/21 05:37:08;;;;;;;;;;;;;;;9.03;75.33;102098.66;5077372;28;19924;-74
2022/09/21 05:39:35;;;;;;;;;;;;;;;9.18;74.57;102100.06;5096923;28;19940;-74
2022/09/21 05:42:01;;;;;;;;;;;;;;;9.50;73.51;102105.34;5104675;28;19973;-74
2022/09/21 05:44:29;;;;;;;;;;;;;;;9.31;74.44;102109.34;5106656;28;19928;-74
2022/09/21 05:46:59;;;;;;;;;;;;;;;9.58;74.40;102110.38;5091362;28;19981;-73
2022/09/21 05:49:30;;;;;;;;;;;;;;;9.94;73.98;102108.56;5083239;28;19955;-74
2022/09/21 05:52:02;;;;;;;;;;;;;;;10.11;73.73;102103.72;5100124;28;19927;-74
2022/09/21 05:54:36;;;;;;;;;;;;;;;10.46;73.84;102105.34;5106487;28;19940;-74
2022/09/21 05:57:05;;;;;;;;;;;;;;;10.79;73.45;102108.72;5099026;28;19977;-74
2022/09/21 05:59:39;;;;;;;;;;;;;;;11.47;72.37;102104.72;5093342;28;19932;-74
2022/09/21 06:02:10;;;;;;;;;;;;;;;12.14;70.89;102112.91;5084342;28;20337;-74
2022/09/21 06:04:37;;;;;;;;;;;;;;;12.71;69.55;102104.63;5097427;28;20354;-74
2022/09/21 06:07:03;;;;;;;;;;;;;;;13.26;67.92;102111.19;5086376;28;19924;-74
2022/09/21 06:09:29;;;;;;;;;;;;;;;13.71;67.17;102107.56;5102081;28;19928;-74
2022/09/21 06:11:55;;;;;;;;;;;;;;;13.82;66.31;102113.22;5084788;28;19924;-74
2022/09/21 06:14:24;;;;;;;;;;;;;;;14.44;64.71;102113.94;5089555;28;20018;-74
2022/09/21 06:16:52;;;;;;;;;;;;;;;14.78;63.72;102109.72;5086225;28;19973;-74
2022/09/21 06:19:18;;;;;;;;;;;;;;;15.48;62.45;102115.91;5074722;28;19925;-74
2022/09/21 06:21:45;;;;;;;;;;;;;;;15.70;61.20;102104.28;5086079;28;20348;-74
2022/09/21 06:24:11;;;;;;;;;;;;;;;15.45;61.29;102113.41;5095490;28;19977;-74
2022/09/21 06:26:37;;;;;;;;;;;;;;;15.80;60.55;102114.31;5085521;28;19931;-74
2022/09/21 06:29:03;;;;;;;;;;;;;;;16.03;60.89;102102.53;5085697;28;19924;-75
2022/09/21 06:31:30;;;;;;;;;;;;;;;16.25;61.14;102107.53;5084927;28;19924;-74
2022/09/21 06:33:57;;;;;;;;;;;;;;;16.37;59.32;102107.72;5097188;28;19999;-74
2022/09/21 06:36:24;;;;;;;;;;;;;;;16.67;58.88;102123.75;5094056;28;19928;-75
2022/09/21 06:38:50;;;;;;;;;;;;;;;16.57;59.50;102114.59;5086386;28;20380;-74
2022/09/21 06:41:16;;;;;;;;;;;;;;;16.83;59.30;102119.31;5082199;28;20338;-74
2022/09/21 06:43:42;;;;;;;;;;;;;;;16.92;59.46;102120.59;5086493;28;20013;-74
2022/09/21 06:46:09;;;;;;;;;;;;;;;17.51;58.34;102125.94;5089126;28;19924;-74
2022/09/21 06:48:35;;;;;;;;;;;;;;;17.66;56.64;102123.41;5085428;28;19928;-74
2022/09/21 06:51:03;;;;;;;;;;;;;;;17.50;56.92;102123.41;5101689;28;20635;-74
2022/09/21 06:53:30;;;;;;;;;;;;;;;18.21;54.92;102120.91;5088908;28;20346;-74
2022/09/21 06:56:00;;;;;;;;;;;;;;;18.28;55.51;102111.63;5089516;28;19923;-74
2022/09/21 06:58:26;;;;;;;;;;;;;;;18.51;55.46;102128.78;5093469;28;20367;-74
2022/09/21 07:00:52;;;;;;;;;;;;;;;18.76;56.29;102121.84;5089124;28;19932;-74
2022/09/21 07:03:18;;;;;;;;;;;;;;;18.91;54.89;102127.97;5096674;28;19928;-74
2022/09/21 07:05:45;;;;;;;;;;;;;;;18.90;54.60;102126.25;5086044;28;19931;-74
2022/09/21 07:08:12;;;;;;;;;;;;;;;19.23;51.72;102134.69;5085863;28;19924;-74
2022/09/21 07:10:38;;;;;;;;;;;;;;;19.22;52.67;102137.44;5084028;28;19931;-74
2022/09/21 07:13:05;;;;;;;;;;;;;;;19.10;53.51;102141.78;5085520;28;19981;-74
2022/09/21 07:15:32;;;;;;;;;;;;;;;19.30;52.97;102136.00;5101439;28;20325;-74
2022/09/21 07:17:58;;;;;;;;;;;;;;;19.52;52.29;102142.56;5096028;28;19931;-74
2022/09/21 07:20:24;;;;;;;;;;;;;;;19.41;54.11;102149.47;5085146;28;19924;-74
2022/09/21 07:22:51;;;;;;;;;;;;;;;19.73;50.58;102149.13;5086639;28;20575;-72
2022/09/21 07:25:18;;;;;;;;;;;;;;;19.83;50.48;102147.53;5098948;28;19924;-73
2022/09/21 07:27:46;;;;;;;;;;;;;;;19.87;51.96;102143.72;5089450;28;20396;-74
2022/09/21 07:30:13;;;;;;;;;;;;;;;20.14;51.15;102154.28;5082140;28;20433;-74
2022/09/21 07:32:39;;;;;;;;;;;;;;;20.05;50.21;102147.75;5084102;28;19967;-74
2022/09/21 07:35:06;;;;;;;;;;;;;;;20.47;51.66;102148.44;5103279;28;19932;-74
2022/09/21 07:37:32;;;;;;;;;;;;;;;20.62;50.16;102152.66;5096084;28;19963;-74
2022/09/21 07:39:58;;;;;;;;;;;;;;;20.48;51.25;102144.78;5093506;28;19986;-74
2022/09/21 07:42:27;;;;;;;;;;;;;;;20.63;52.18;102149.88;5089105;28;19969;-73
2022/09/21 07:44:53;;;;;;;;;;;;;;;21.02;48.64;102142.63;5083280;28;19924;-74
2022/09/21 07:47:19;;;;;;;;;;;;;;;21.19;47.83;102145.78;5089051;28;19930;-74
2022/09/21 07:49:46;;;;;;;;;;;;;;;21.30;49.28;102152.97;5108344;28;19924;-74
2022/09/21 07:52:14;;;;;;;;;;;;;;;21.56;46.24;102151.88;5107747;28;19924;-74
2022/09/21 07:54:40;;;;;;;;;;;;;;;21.90;46.58;102157.31;5109191;28;19924;-74
2022/09/21 07:59:52;;;;;;;;;;;;;;;22.29;46.08;102157.78;5086546;28;19931;-74
2022/09/21 08:02:18;;;;;;;;;;;;;;;22.39;47.10;102159.75;5077872;28;19927;-74
2022/09/21 08:04:44;;;;;;;;;;;;;;;22.80;46.10;102150.13;5102812;28;20332;-74
2022/09/21 08:07:11;;;;;;;;;;;;;;;22.97;44.62;102146.09;5103168;28;19974;-74
2022/09/21 08:09:37;;;;;;;;;;;;;;;23.04;44.06;102143.75;5099475;28;19924;-74
2022/09/21 08:12:03;;;;;;;;;;;;;;;23.26;42.89;102152.56;5108062;28;19967;-74
2022/09/21 08:14:29;;;;;;;;;;;;;;;23.42;43.29;102148.66;5094367;28;19932;-74
2022/09/21 08:16:57;;;;;;;;;;;;;;;23.73;44.40;102143.25;5103638;28;19924;-73
2022/09/21 08:19:25;;;;;;;;;;;;;;;23.77;43.15;102149.19;5076218;28;19967;-74
2022/09/21 08:21:52;;;;;;;;;;;;;;;24.09;42.06;102149.97;5080874;28;19951;-74
2022/09/21 08:24:18;;;;;;;;;;;;;;;24.24;41.89;102147.84;5097425;28;20020;-74
2022/09/21 08:26:45;;;;;;;;;;;;;;;24.15;43.42;102152.16;5083659;28;20346;-73
2022/09/21 08:29:13;;;;;;;;;;;;;;;24.07;39.91;102151.94;5085822;28;20170;-73
2022/09/21 08:31:39;;;;;;;;;;;;;;;23.52;42.16;102150.44;5088326;28;19935;-73
2022/09/21 08:34:07;;;;;;;;;;;;;;;22.83;44.57;102154.41;5089020;28;19977;-73
2022/09/21 08:36:33;;;;;;;;;;;;;;;23.56;45.32;102153.69;5087583;28;19939;-73
2022/09/21 08:38:59;;;;;;;;;;;;;;;23.73;44.92;102155.78;5086235;28;19985;-73
2022/09/21 08:41:41;;;;;;;;;;;;;;;23.81;43.22;102157.81;5094851;28;19931;-74
2022/09/21 08:44:10;;;;;;;;;;;;;;;24.34;43.55;102155.91;5067162;28;20350;-74
2022/09/21 08:46:36;;;;;;;;;;;;;;;24.63;41.57;102152.38;5068659;28;19978;-74
2022/09/21 08:49:07;;;;;;;;;;;;;;;24.67;41.08;102153.78;5092397;28;20303;-74
2022/09/21 08:51:36;;;;;;;;;;;;;;;24.87;40.74;102152.03;5087687;28;20023;-74
2022/09/21 08:54:06;;;;;;;;;;;;;;;24.50;42.35;102156.28;5088202;28;20441;-74
2022/09/21 08:56:33;;;;;;;;;;;;;;;24.56;42.71;102158.41;5077549;28;19924;-73
2022/09/21 08:58:59;;;;;;;;;;;;;;;24.96;41.20;102158.41;5086350;28;19928;-74
2022/09/21 09:01:31;;;;;;;;;;;;;;;25.05;41.56;102162.97;5094976;28;19924;-74
2022/09/21 09:04:07;;;;;;;;;;;;;;;24.54;43.33;102158.53;5088817;28;19924;-74
2022/09/21 09:06:40;;;;;;;;;;;;;;;24.66;43.67;102159.28;5087601;28;19924;-74
2022/09/21 09:09:16;;;;;;;;;;;;;;;25.18;44.50;102158.16;5087635;28;19924;-74
2022/09/21 09:11:47;;;;;;;;;;;;;;;25.39;40.57;102161.56;5088113;28;19971;-75
2022/09/21 09:14:29;;;;;;;;;;;;;;;25.43;41.99;102164.81;5084593;28;19924;-74
2022/09/21 09:17:04;;;;;;;;;;;;;;;25.79;40.94;102163.28;5085189;28;19928;-73
2022/09/21 09:19:41;;;;;;;;;;;;;;;25.71;41.31;102158.63;5084768;28;19950;-73
2022/09/21 09:22:12;;;;;;;;;;;;;;;25.72;41.06;102160.31;5086507;28;19989;-74
2022/09/21 09:24:41;;;;;;;;;;;;;;;26.01;41.71;102157.59;5085245;28;19943;-74
2022/09/21 09:27:14;;;;;;;;;;;;;;;25.52;41.06;102162.19;5086207;28;19924;-74
2022/09/21 09:29:43;;;;;;;;;;;;;;;25.80;40.58;102163.13;5084551;28;19924;-74
2022/09/21 09:32:12;;;;;;;;;;;;;;;25.05;41.55;102163.81;5085860;28;19924;-74
2022/09/21 09:34:42;;;;;;;;;;;;;;;25.13;40.19;102155.03;5086771;28;19973;-74
2022/09/21 09:37:11;;;;;;;;;;;;;;;26.05;40.75;102159.81;5084646;28;19950;-74
2022/09/21 09:39:37;;;;;;;;;;;;;;;25.76;40.46;102156.34;5086445;28;19924;-74
2022/09/21 09:42:14;;;;;;;;;;;;;;;26.16;39.14;102161.53;5085298;28;20368;-74
2022/09/21 09:44:48;;;;;;;;;;;;;;;26.20;40.70;102164.78;5079875;28;19939;-74
2022/09/21 09:47:22;;;;;;;;;;;;;;;26.63;39.81;102162.34;5086239;28;19924;-75
2022/09/21 09:49:55;;;;;;;;;;;;;;;26.20;39.78;102159.41;5084780;28;19924;-74
2022/09/21 09:52:23;;;;;;;;;;;;;;;26.33;39.79;102162.63;5085727;28;19924;-74
2022/09/21 09:54:49;;;;;;;;;;;;;;;26.03;41.97;102161.81;5085761;28;19932;-74
2022/09/21 09:57:20;;;;;;;;;;;;;;;26.47;39.44;102164.81;5085751;28;20325;-74
2022/09/21 09:59:48;;;;;;;;;;;;;;;26.31;38.95;102153.84;5084247;28;19924;-74
2022/09/21 10:02:22;;;;;;;;;;;;;;;25.70;40.28;102158.75;5081238;28;19927;-74
2022/09/21 10:05:02;;;;;;;;;;;;;;;25.79;39.41;102152.53;5085296;28;20614;-74
2022/09/21 10:07:35;;;;;;;;;;;;;;;26.15;41.90;102154.44;5087084;28;19924;-74
2022/09/21 10:10:01;;;;;;;;;;;;;;;26.04;39.37;102151.91;5084889;28;20016;-74
2022/09/21 10:12:27;;;;;;;;;;;;;;;25.37;37.59;102144.75;5086017;28;19924;-74
2022/09/21 10:14:56;;;;;;;;;;;;;;;24.88;38.56;102148.38;5085820;28;19985;-74
2022/09/21 10:17:24;;;;;;;;;;;;;;;24.15;40.09;102152.16;5084774;28;19932;-74
2022/09/21 10:19:58;;;;;;;;;;;;;;;23.40;40.38;102153.25;5084931;28;20409;-74
2022/09/21 10:22:25;;;;;;;;;;;;;;;23.57;49.06;102150.03;5086434;28;19924;-74
2022/09/21 10:24:53;;;;;;;;;;;;;;;23.68;41.76;102147.31;5086167;28;20440;-74
2022/09/21 10:27:21;;;;;;;;;;;;;;;23.96;43.39;102143.97;5086383;28;19924;-74
2022/09/21 10:29:48;;;;;;;;;;;;;;;23.97;40.18;102143.00;5074231;28;19993;-74
2022/09/21 10:32:19;;;;;;;;;;;;;;;24.12;43.48;102144.34;5084929;28;19946;-74
2022/09/21 10:35:00;;;;;;;;;;;;;;;24.77;42.61;102137.72;5086908;28;19950;-74
2022/09/21 10:37:27;;;;;;;;;;;;;;;25.47;37.74;102137.53;5084055;28;20433;-74
2022/09/21 10:39:55;;;;;;;;;;;;;;;24.48;35.38;102136.78;5085996;28;19930;-74
2022/09/21 10:42:22;;;;;;;;;;;;;;;23.76;39.61;102134.94;5083378;28;20376;-74
2022/09/21 10:44:50;;;;;;;;;;;;;;;23.53;38.33;102137.91;5065196;28;19978;-74
2022/09/21 10:47:21;;;;;;;;;;;;;;;23.55;36.78;102133.25;5065916;28;19982;-74
2022/09/21 10:49:49;;;;;;;;;;;;;;;23.05;39.00;102137.44;5071859;28;20017;-74
2022/09/21 10:52:15;;;;;;;;;;;;;;;22.44;40.83;102137.00;5105191;28;19924;-74
2022/09/21 10:54:42;;;;;;;;;;;;;;;22.06;42.12;102148.03;5105800;28;19976;-74
2022/09/21 10:57:14;;;;;;;;;;;;;;;22.58;44.85;102136.75;5095777;28;19928;-74
2022/09/21 10:59:41;;;;;;;;;;;;;;;23.28;44.15;102142.56;5088322;28;20000;-72
2022/09/21 11:02:24;;;;;;;;;;;;;;;23.73;42.30;102139.72;5085263;28;20338;-72
2022/09/21 11:04:53;;;;;;;;;;;;;;;24.23;41.47;102125.53;5084804;28;20368;-72
2022/09/21 11:07:22;;;;;;;;;;;;;;;24.28;37.19;102119.75;5083770;28;19977;-72
2022/09/21 11:09:53;;;;;;;;;;;;;;;24.62;38.26;102123.00;5082260;28;20002;-72
2022/09/21 11:12:33;;;;;;;;;;;;;;;24.63;40.09;102127.38;5083038;28;19924;-72
2022/09/21 11:15:05;;;;;;;;;;;;;;;24.48;37.74;102123.38;5083440;28;19974;-72
2022/09/21 11:17:35;;;;;;;;;;;;;;;23.87;35.87;102119.81;5085284;28;19939;-72
2022/09/21 11:20:05;;;;;;;;;;;;;;;23.74;35.73;102120.84;5090342;28;19928;-72
2022/09/21 11:22:35;;;;;;;;;;;;;;;23.94;37.68;102118.31;5104456;28;19923;-72
2022/09/21 11:25:07;;;;;;;;;;;;;;;24.16;40.67;102120.84;5088383;28;19977;-72
2022/09/21 11:27:36;;;;;;;;;;;;;;;24.44;41.07;102114.75;5085369;28;20345;-72
2022/09/21 11:30:03;;;;;;;;;;;;;;;24.90;37.16;102116.03;5093387;28;20376;-72
2022/09/21 11:32:38;;;;;;;;;;;;;;;25.31;38.99;102107.75;5088409;28;19977;-71
2022/09/21 11:35:18;;;;;;;;;;;;;;;24.70;35.51;102115.97;5088905;28;19924;-71
2022/09/21 11:37:50;;;;;;;;;;;;;;;24.22;38.18;102109.59;5088332;28;20012;-71
2022/09/21 11:40:25;;;;;;;;;;;;;;;24.39;36.99;102114.28;5087225;28;20299;-71
2022/09/21 11:42:57;;;;;;;;;;;;;;;24.45;37.69;102110.25;5079120;28;19955;-71
2022/09/21 11:45:31;;;;;;;;;;;;;;;24.52;36.11;102108.72;5107951;28;20268;-71
2022/09/21 11:48:06;;;;;;;;;;;;;;;24.63;39.36;102109.47;5092962;28;20007;-71
2022/09/21 11:50:38;;;;;;;;;;;;;;;24.33;40.50;102106.81;5086772;28;20280;-71
2022/09/21 11:53:13;;;;;;;;;;;;;;;24.95;39.12;102095.84;5087733;28;19995;-71
2022/09/21 11:55:47;;;;;;;;;;;;;;;25.09;37.51;102090.06;5088298;28;20007;-71
2022/09/21 11:58:22;;;;;;;;;;;;;;;25.41;39.18;102099.66;5088668;28;19962;-71
2022/09/21 12:00:56;;;;;;;;;;;;;;;25.61;38.16;102099.53;5088124;28;19924;-71
2022/09/21 12:03:44;;;;;;;;;;;;;;;25.70;36.54;102089.75;5086880;28;20391;-71
2022/09/21 12:06:15;;;;;;;;;;;;;;;25.43;35.70;102082.41;5089079;28;20045;-71
2022/09/21 12:08:47;;;;;;;;;;;;;;;25.93;36.10;102085.75;5096076;28;19932;-71
2022/09/21 12:11:20;;;;;;;;;;;;;;;25.54;36.59;102081.44;5088848;28;20387;-71
2022/09/21 12:13:54;;;;;;;;;;;;;;;25.09;35.12;102081.19;5087062;28;19924;-71
2022/09/21 12:16:23;;;;;;;;;;;;;;;24.65;34.40;102079.78;5088273;28;19924;-71
2022/09/21 12:18:54;;;;;;;;;;;;;;;24.17;35.92;102090.38;5088441;28;20425;-71
2022/09/21 12:21:23;;;;;;;;;;;;;;;23.80;37.66;102087.31;5088278;28;20624;-71
2022/09/21 12:23:51;;;;;;;;;;;;;;;23.33;38.52;102079.78;5087723;28;19925;-71
2022/09/21 12:26:19;;;;;;;;;;;;;;;22.57;39.63;102078.06;5067351;28;19925;-71
2022/09/21 12:28:47;;;;;;;;;;;;;;;22.15;40.91;102093.03;5087935;28;19931;-71
2022/09/21 12:31:19;;;;;;;;;;;;;;;21.95;41.49;102091.91;5085692;28;19938;-71
2022/09/21 12:33:49;;;;;;;;;;;;;;;21.68;40.86;102091.38;5086976;28;19977;-71
2022/09/21 12:36:17;;;;;;;;;;;;;;;21.51;41.65;102089.13;5087563;28;19924;-71
2022/09/21 12:38:47;;;;;;;;;;;;;;;21.48;42.80;102092.88;5087586;28;19998;-71
2022/09/21 12:41:16;;;;;;;;;;;;;;;21.17;42.32;102083.72;5088792;28;19982;-71
2022/09/21 12:43:44;;;;;;;;;;;;;;;21.29;42.58;102090.75;5081022;28;20342;-71
2022/09/21 12:46:12;;;;;;;;;;;;;;;21.28;42.72;102085.56;5082831;28;20413;-71
2022/09/21 12:48:41;;;;;;;;;;;;;;;21.56;43.45;102090.50;5088056;28;19978;-68
2022/09/21 12:51:12;;;;;;;;;;;;;;;21.45;43.52;102084.28;5087117;28;19924;-68